createdAt,value
2018-12-12T00:02:14.951Z,9.23
2018-12-12T00:04:43.014Z,8.00
2018-12-12T00:07:11.362Z,8.30
2018-12-12T00:09:39.454Z,9.10
2018-12-12T00:12:07.508Z,8.37
2018-12-12T00:14:35.600Z,9.17
2018-12-12T00:17:03.820Z,8.30
2018-12-12T00:19:31.900Z,9.70
2018-12-12T00:21:59.944Z,8.50
2018-12-12T00:24:28.005Z,9.13
2018-12-12T00:26:56.092Z,9.33
2018-12-12T00:29:24.170Z,9.00
2018-12-12T00:31:52.279Z,7.87
2018-12-12T00:34:20.409Z,8.73
2018-12-12T00:36:48.478Z,8.33
2018-12-12T00:39:16.654Z,8.57
2018-12-12T00:41:44.932Z,9.47
2018-12-12T00:44:13.015Z,8.77
2018-12-12T00:46:41.433Z,9.17
2018-12-12T00:49:09.504Z,8.30
2018-12-12T00:51:37.555Z,8.10
2018-12-12T00:54:05.610Z,8.80
2018-12-12T00:56:33.669Z,8.80
2018-12-12T00:59:01.741Z,9.77
2018-12-12T01:01:29.804Z,9.73
2018-12-12T01:03:57.916Z,8.67
2018-12-12T01:06:26.088Z,8.13
2018-12-12T01:08:54.187Z,10.23
2018-12-12T01:11:29.020Z,8.90
2018-12-12T01:13:57.091Z,8.53
2018-12-12T01:16:25.181Z,9.97
2018-12-12T01:18:53.265Z,9.27
2018-12-12T01:21:21.356Z,8.87
2018-12-12T01:23:49.442Z,7.43
2018-12-12T01:26:17.656Z,8.73
2018-12-12T01:28:45.699Z,8.87
2018-12-12T01:31:13.760Z,7.83
2018-12-12T01:33:41.905Z,8.00
2018-12-12T01:36:09.974Z,10.10
2018-12-12T01:38:38.047Z,8.70
2018-12-12T01:41:06.072Z,9.63
2018-12-12T01:43:34.160Z,9.93
2018-12-12T01:46:02.253Z,9.50
2018-12-12T01:48:30.374Z,8.87
2018-12-12T01:50:58.417Z,10.13
2018-12-12T01:53:26.487Z,8.80
2018-12-12T01:55:54.565Z,8.50
2018-12-12T01:58:22.630Z,8.43
2018-12-12T02:00:50.706Z,9.17
2018-12-12T02:03:18.802Z,9.53
2018-12-12T02:05:46.874Z,10.20
2018-12-12T02:08:15.052Z,10.03
2018-12-12T02:10:43.344Z,8.43
2018-12-12T02:13:23.376Z,9.10
2018-12-12T02:15:51.448Z,9.97
2018-12-12T02:18:19.622Z,9.60
2018-12-12T02:20:47.654Z,9.97
2018-12-12T02:23:15.740Z,9.03
2018-12-12T02:25:43.792Z,9.33
2018-12-12T02:28:11.874Z,9.57
2018-12-12T02:30:40.069Z,8.70
2018-12-12T02:33:08.129Z,8.63
2018-12-12T02:35:36.216Z,8.83
2018-12-12T02:38:04.371Z,10.40
2018-12-12T02:40:32.422Z,9.57
2018-12-12T02:43:00.615Z,8.13
2018-12-12T02:45:28.658Z,9.03
2018-12-12T02:47:56.735Z,10.07
2018-12-12T02:50:24.818Z,10.00
2018-12-12T02:52:52.916Z,8.03
2018-12-12T02:55:21.044Z,10.27
2018-12-12T02:57:49.161Z,10.53
2018-12-12T03:00:17.239Z,9.67
2018-12-12T03:02:45.291Z,9.33
2018-12-12T03:05:13.461Z,9.90
2018-12-12T03:07:41.493Z,9.90
2018-12-12T03:10:09.548Z,9.53
2018-12-12T03:12:37.607Z,9.40
2018-12-12T03:15:05.802Z,9.27
2018-12-12T03:17:34.993Z,8.83
2018-12-12T03:20:03.697Z,8.10
2018-12-12T03:22:31.778Z,10.83
2018-12-12T03:24:59.959Z,10.23
2018-12-12T03:27:28.019Z,10.00
2018-12-12T03:29:56.199Z,9.07
2018-12-12T03:32:24.280Z,8.93
2018-12-12T03:34:52.339Z,9.50
2018-12-12T03:37:20.421Z,9.33
2018-12-12T03:39:48.471Z,9.20
2018-12-12T03:42:16.525Z,9.50
2018-12-12T03:44:44.603Z,11.03
2018-12-12T03:47:12.658Z,9.47
2018-12-12T03:49:40.808Z,10.47
2018-12-12T03:52:08.859Z,10.23
2018-12-12T03:54:36.989Z,9.73
2018-12-12T03:57:05.027Z,10.17
2018-12-12T03:59:33.097Z,8.70
2018-12-12T04:02:01.263Z,9.47
2018-12-12T04:04:29.373Z,8.60
2018-12-12T04:06:57.445Z,9.83
2018-12-12T04:09:25.625Z,10.50
2018-12-12T04:11:53.691Z,10.17
2018-12-12T04:14:21.779Z,10.77
2018-12-12T04:16:49.930Z,9.93
2018-12-12T04:19:18.111Z,10.50
2018-12-12T04:21:46.182Z,10.17
2018-12-12T04:24:14.319Z,9.53
2018-12-12T04:26:42.398Z,10.07
2018-12-12T04:29:10.595Z,9.60
2018-12-12T04:31:38.638Z,8.83
2018-12-12T04:34:06.704Z,9.77
2018-12-12T04:36:34.776Z,9.80
2018-12-12T04:39:04.391Z,8.83
2018-12-12T04:41:32.427Z,8.83
2018-12-12T04:44:00.595Z,9.93
2018-12-12T04:46:28.712Z,9.17
2018-12-12T04:48:56.773Z,9.43
2018-12-12T04:51:24.981Z,8.80
2018-12-12T04:53:53.043Z,8.90
2018-12-12T04:56:21.102Z,7.50
2018-12-12T04:58:49.159Z,8.13
2018-12-12T05:01:17.311Z,8.97
2018-12-12T05:03:45.363Z,8.50
2018-12-12T05:06:13.453Z,8.57
2018-12-12T05:08:41.510Z,7.40
2018-12-12T05:11:09.582Z,7.63
2018-12-12T05:13:37.829Z,7.00
2018-12-12T05:16:05.852Z,7.77
2018-12-12T05:18:33.971Z,8.73
2018-12-12T05:21:02.005Z,8.90
2018-12-12T05:23:30.165Z,8.53
2018-12-12T05:25:58.208Z,7.90
2018-12-12T05:28:26.305Z,7.60
2018-12-12T05:30:54.337Z,7.63
2018-12-12T05:33:22.424Z,8.83
2018-12-12T05:35:50.490Z,7.33
2018-12-12T05:38:18.589Z,7.27
2018-12-12T05:40:46.729Z,9.37
2018-12-12T05:43:14.905Z,9.30
2018-12-12T05:45:42.933Z,8.20
2018-12-12T05:48:11.012Z,7.47
2018-12-12T05:50:39.061Z,6.80
2018-12-12T05:53:07.223Z,7.90
2018-12-12T05:55:35.324Z,8.17
2018-12-12T05:58:03.495Z,8.63
2018-12-12T06:00:31.523Z,8.80
2018-12-12T06:02:59.597Z,7.50
2018-12-12T06:05:27.668Z,7.50
2018-12-12T06:07:55.747Z,7.83
2018-12-12T06:10:23.788Z,7.37
2018-12-12T06:12:51.875Z,6.43
2018-12-12T06:15:19.974Z,7.83
2018-12-12T06:17:48.063Z,7.27
2018-12-12T06:20:16.149Z,7.90
2018-12-12T06:22:44.307Z,8.23
2018-12-12T06:25:12.476Z,7.87
2018-12-12T06:27:40.556Z,7.93
2018-12-12T06:30:09.056Z,7.47
2018-12-12T06:32:37.122Z,6.73
2018-12-12T06:35:05.820Z,6.97
2018-12-12T06:37:33.931Z,7.23
2018-12-12T06:40:02.080Z,7.63
2018-12-12T06:42:30.181Z,6.87
2018-12-12T06:44:58.261Z,7.73
2018-12-12T06:47:26.331Z,7.20
2018-12-12T06:49:54.430Z,7.87
2018-12-12T06:52:22.595Z,5.83
2018-12-12T06:54:50.663Z,7.27
2018-12-12T06:57:18.736Z,7.87
2018-12-12T06:59:46.757Z,7.80
2018-12-12T07:02:15.064Z,7.97
2018-12-12T07:04:43.276Z,7.00
2018-12-12T07:07:11.335Z,7.90
2018-12-12T07:09:39.460Z,7.03
2018-12-12T07:12:07.541Z,6.93
2018-12-12T07:14:35.733Z,8.47
2018-12-12T07:17:03.878Z,7.17
2018-12-12T07:19:31.933Z,8.17
2018-12-12T07:22:00.003Z,7.57
2018-12-12T07:24:28.066Z,6.67
2018-12-12T07:26:56.124Z,7.70
2018-12-12T07:29:24.199Z,6.77
2018-12-12T07:31:52.261Z,7.50
2018-12-12T07:34:20.378Z,7.47
2018-12-12T07:36:48.605Z,7.87
2018-12-12T07:39:18.102Z,6.63
2018-12-12T07:41:46.236Z,6.80
2018-12-12T07:44:14.404Z,6.50
2018-12-12T07:46:42.694Z,6.20
2018-12-12T07:49:11.057Z,7.60
2018-12-12T07:51:39.124Z,7.60
2018-12-12T07:54:07.186Z,9.17
2018-12-12T07:56:35.248Z,7.67
2018-12-12T07:59:03.395Z,7.83
2018-12-12T08:01:31.422Z,6.90
2018-12-12T08:03:59.487Z,7.20
2018-12-12T08:06:27.591Z,7.33
2018-12-12T08:08:55.764Z,6.53
2018-12-12T08:11:23.830Z,6.70
2018-12-12T08:13:51.941Z,6.73
2018-12-12T08:16:20.289Z,5.97
2018-12-12T08:18:48.630Z,5.43
2018-12-12T08:21:16.681Z,6.07
2018-12-12T08:23:44.783Z,5.60
2018-12-12T08:26:12.830Z,5.60
2018-12-12T08:28:40.901Z,7.20
2018-12-12T08:31:08.964Z,5.97
2018-12-12T08:33:37.145Z,5.13
2018-12-12T08:36:05.184Z,6.13
2018-12-12T08:38:33.248Z,5.77
2018-12-12T08:41:01.344Z,5.27
2018-12-12T08:43:29.420Z,4.90
2018-12-12T08:45:57.534Z,5.67
2018-12-12T08:48:25.596Z,5.83
2018-12-12T08:50:53.730Z,5.27
2018-12-12T08:53:21.798Z,4.93
2018-12-12T08:55:49.874Z,4.90
2018-12-12T08:58:17.941Z,4.93
2018-12-12T09:00:46.042Z,5.20
2018-12-12T09:03:17.567Z,4.97
2018-12-12T09:05:44.200Z,5.67
2018-12-12T09:08:12.248Z,5.70
2018-12-12T09:10:40.332Z,5.27
2018-12-12T09:13:08.454Z,4.70
2018-12-12T09:15:36.500Z,5.70
2018-12-12T09:18:04.605Z,5.10
2018-12-12T09:20:32.667Z,5.07
2018-12-12T09:23:00.840Z,4.83
2018-12-12T09:25:28.922Z,4.73
2018-12-12T09:27:57.076Z,5.30
2018-12-12T09:30:25.126Z,4.63
2018-12-12T09:32:54.148Z,5.70
2018-12-12T09:35:22.224Z,4.70
2018-12-12T09:37:50.317Z,4.40
2018-12-12T09:40:18.383Z,4.77
2018-12-12T09:42:46.448Z,5.50
2018-12-12T09:45:14.536Z,4.93
2018-12-12T09:47:42.651Z,4.43
2018-12-12T09:50:10.689Z,5.50
2018-12-12T09:52:38.803Z,5.13
2018-12-12T09:55:06.997Z,4.93
2018-12-12T09:57:35.063Z,5.37
2018-12-12T10:00:03.789Z,4.93
2018-12-12T10:02:31.875Z,5.40
2018-12-12T10:04:59.967Z,4.87
2018-12-12T10:07:28.078Z,5.20
2018-12-12T10:09:56.167Z,5.20
2018-12-12T10:12:24.195Z,5.77
2018-12-12T10:14:52.261Z,5.03
2018-12-12T10:17:20.402Z,5.73
2018-12-12T10:19:48.470Z,5.43
2018-12-12T10:22:16.567Z,5.30
2018-12-12T10:24:44.670Z,5.70
2018-12-12T10:27:12.842Z,5.60
2018-12-12T10:29:41.016Z,5.50
2018-12-12T10:32:09.281Z,5.17
2018-12-12T10:34:37.335Z,3.97
2018-12-12T10:37:05.471Z,5.27
2018-12-12T10:39:33.507Z,4.20
2018-12-12T10:42:01.575Z,4.83
2018-12-12T10:44:29.639Z,5.37
2018-12-12T10:46:57.710Z,5.17
2018-12-12T10:49:25.812Z,4.77
2018-12-12T10:51:53.839Z,4.93
2018-12-12T10:54:21.919Z,4.57
2018-12-12T10:56:50.016Z,4.70
2018-12-12T10:59:18.142Z,4.20
2018-12-12T11:01:47.298Z,3.53
2018-12-12T11:04:16.829Z,3.40
2018-12-12T11:06:44.895Z,4.80
2018-12-12T11:09:12.963Z,4.43
2018-12-12T11:11:41.099Z,4.13
2018-12-12T11:14:09.141Z,4.50
2018-12-12T11:16:37.203Z,4.50
2018-12-12T11:19:05.333Z,4.03
2018-12-12T11:21:33.403Z,4.77
2018-12-12T11:24:01.479Z,4.73
2018-12-12T11:26:29.550Z,6.07
2018-12-12T11:28:57.621Z,6.30
2018-12-12T11:31:25.664Z,5.03
2018-12-12T11:33:53.801Z,6.70
2018-12-12T11:36:21.921Z,6.97
2018-12-12T11:38:50.003Z,5.90
2018-12-12T11:41:18.146Z,5.13
2018-12-12T11:43:46.168Z,4.97
2018-12-12T11:46:14.251Z,5.90
2018-12-12T11:48:42.308Z,6.53
2018-12-12T11:51:10.424Z,6.23
2018-12-12T11:53:38.604Z,4.83
2018-12-12T11:56:06.656Z,4.73
2018-12-12T11:58:34.688Z,4.53
2018-12-12T12:01:02.739Z,5.07
2018-12-12T12:03:30.824Z,3.93
2018-12-12T12:05:58.922Z,4.47
2018-12-12T12:08:26.984Z,3.97
2018-12-12T12:10:55.046Z,3.90
2018-12-12T12:13:23.160Z,3.50
2018-12-12T12:15:51.212Z,3.47
2018-12-12T12:18:19.332Z,3.70
2018-12-12T12:20:47.391Z,3.60
2018-12-12T12:23:15.474Z,3.20
2018-12-12T12:25:43.566Z,2.97
2018-12-12T12:28:11.627Z,3.10
2018-12-12T12:30:39.694Z,2.33
2018-12-12T12:33:07.750Z,2.67
2018-12-12T12:35:35.813Z,2.70
2018-12-12T12:38:03.862Z,2.53
2018-12-12T12:40:32.020Z,2.47
2018-12-12T12:43:00.048Z,2.40
2018-12-12T12:45:29.226Z,2.37
2018-12-12T12:47:57.504Z,2.50
2018-12-12T12:50:25.613Z,2.20
2018-12-12T12:52:53.703Z,2.00
2018-12-12T12:55:21.790Z,2.20
2018-12-12T12:57:49.860Z,2.20
2018-12-12T13:00:17.951Z,3.03
2018-12-12T13:02:46.001Z,2.90
2018-12-12T13:05:14.080Z,2.27
2018-12-12T13:07:42.150Z,2.40
2018-12-12T13:10:11.665Z,2.13
2018-12-12T13:12:40.035Z,2.00
2018-12-12T13:15:08.072Z,2.20
2018-12-12T13:17:36.181Z,2.03
2018-12-12T13:20:05.570Z,2.00
2018-12-12T13:22:33.610Z,1.87
2018-12-12T13:25:01.700Z,2.40
2018-12-12T13:27:29.741Z,2.10
2018-12-12T13:29:57.804Z,2.20
2018-12-12T13:32:25.862Z,1.90
2018-12-12T13:34:53.950Z,1.80
2018-12-12T13:37:21.996Z,2.03
2018-12-12T13:39:50.172Z,2.07
2018-12-12T13:42:18.763Z,4.20
2018-12-12T13:44:46.811Z,3.57
2018-12-12T13:47:17.394Z,2.70
2018-12-12T13:49:45.053Z,2.90
2018-12-12T13:52:13.220Z,2.77
2018-12-12T13:54:41.256Z,2.53
2018-12-12T13:57:09.314Z,2.27
2018-12-12T13:59:37.372Z,2.37
2018-12-12T14:02:05.455Z,2.23
2018-12-12T14:04:33.532Z,2.20
2018-12-12T14:07:01.617Z,2.50
2018-12-12T14:09:29.665Z,2.40
2018-12-12T14:11:57.718Z,2.80
2018-12-12T14:14:25.816Z,2.70
2018-12-12T14:16:53.863Z,2.27
2018-12-12T14:19:21.943Z,1.90
2018-12-12T14:21:50.014Z,2.30
2018-12-12T14:24:18.150Z,2.50
2018-12-12T14:26:46.174Z,2.93
2018-12-12T14:29:14.237Z,3.50
2018-12-12T14:31:42.323Z,3.00
2018-12-12T14:34:10.406Z,2.37
2018-12-12T14:36:38.466Z,2.33
2018-12-12T14:39:07.163Z,2.27
2018-12-12T14:41:35.238Z,2.47
2018-12-12T14:44:03.427Z,2.17
2018-12-12T14:46:31.487Z,2.40
2018-12-12T14:48:59.571Z,2.60
2018-12-12T14:51:27.674Z,2.43
2018-12-12T14:53:55.777Z,2.33
2018-12-12T14:56:23.842Z,2.20
2018-12-12T14:58:51.922Z,2.40
2018-12-12T15:01:20.012Z,2.13
2018-12-12T15:03:48.045Z,3.00
2018-12-12T15:06:16.153Z,2.07
2018-12-12T15:08:44.262Z,2.23
2018-12-12T15:11:12.443Z,2.57
2018-12-12T15:13:40.522Z,1.90
2018-12-12T15:16:08.607Z,1.80
2018-12-12T15:18:36.684Z,2.00
2018-12-12T15:21:04.777Z,2.30
2018-12-12T15:23:32.846Z,2.80
2018-12-12T15:26:00.897Z,4.93
2018-12-12T15:28:28.978Z,3.70
2018-12-12T15:30:57.029Z,3.17
2018-12-12T15:33:25.104Z,2.90
2018-12-12T15:35:53.171Z,2.37
2018-12-12T15:38:21.223Z,2.10
2018-12-12T15:40:49.324Z,1.60
2018-12-12T15:43:17.407Z,2.00
2018-12-12T15:45:45.495Z,2.00
2018-12-12T15:48:13.672Z,2.33
2018-12-12T15:50:41.725Z,2.23
2018-12-12T15:53:09.804Z,3.30
2018-12-12T15:55:37.857Z,2.83
2018-12-12T15:58:06.027Z,2.70
2018-12-12T16:00:34.149Z,3.67
2018-12-12T16:03:02.321Z,3.07
2018-12-12T16:05:30.398Z,2.97
2018-12-12T16:07:58.452Z,4.10
2018-12-12T16:10:26.564Z,4.67
2018-12-12T16:12:54.670Z,3.33
2018-12-12T16:15:22.777Z,4.87
2018-12-12T16:17:50.913Z,3.83
2018-12-12T16:20:18.986Z,3.27
2018-12-12T16:22:47.069Z,3.00
2018-12-12T16:25:15.133Z,3.27
2018-12-12T16:27:43.320Z,3.00
2018-12-12T16:30:11.389Z,4.90
2018-12-12T16:32:39.489Z,5.57
2018-12-12T16:35:07.529Z,4.83
2018-12-12T16:37:35.611Z,3.27
2018-12-12T16:40:04.737Z,3.60
2018-12-12T16:42:33.297Z,5.17
2018-12-12T16:45:01.427Z,5.47
2018-12-12T16:47:29.525Z,5.30
2018-12-12T16:49:57.594Z,5.50
2018-12-12T16:52:25.854Z,5.17
2018-12-12T16:54:53.977Z,4.30
2018-12-12T16:57:22.094Z,3.30
2018-12-12T16:59:50.185Z,3.10
2018-12-12T17:02:18.297Z,3.03
2018-12-12T17:04:46.371Z,2.50
2018-12-12T17:07:14.429Z,2.87
2018-12-12T17:09:42.502Z,2.70
2018-12-12T17:12:10.661Z,3.40
2018-12-12T17:14:38.744Z,3.30
2018-12-12T17:17:06.849Z,3.40
2018-12-12T17:19:34.921Z,3.37
2018-12-12T17:22:03.015Z,3.07
2018-12-12T17:24:31.059Z,4.10
2018-12-12T17:26:59.127Z,3.40
2018-12-12T17:29:27.201Z,4.17
2018-12-12T17:31:55.246Z,3.63
2018-12-12T17:34:23.310Z,3.30
2018-12-12T17:36:51.443Z,3.07
2018-12-12T17:39:19.551Z,3.13
2018-12-12T17:41:47.618Z,3.40
2018-12-12T17:44:15.698Z,3.60
2018-12-12T17:46:43.775Z,2.90
2018-12-12T17:49:11.853Z,3.50
2018-12-12T17:51:39.928Z,3.47
2018-12-12T17:54:08.011Z,3.00
2018-12-12T17:56:36.075Z,3.40
2018-12-12T17:59:04.312Z,3.90
2018-12-12T18:01:32.417Z,3.60
2018-12-12T18:04:00.597Z,3.97
2018-12-12T18:06:28.744Z,3.57
2018-12-12T18:08:56.837Z,3.90
2018-12-12T18:11:24.893Z,4.00
2018-12-12T18:13:53.118Z,5.17
2018-12-12T18:16:21.196Z,4.53
2018-12-12T18:18:49.291Z,4.77
2018-12-12T18:21:17.489Z,4.43
2018-12-12T18:23:45.556Z,4.73
2018-12-12T18:26:13.734Z,4.40
2018-12-12T18:28:41.768Z,4.27
2018-12-12T18:31:09.866Z,4.60
2018-12-12T18:33:37.950Z,5.00
2018-12-12T18:36:06.137Z,5.00
2018-12-12T18:38:34.175Z,6.17
2018-12-12T18:41:02.305Z,5.70
2018-12-12T18:43:30.693Z,5.70
2018-12-12T18:45:58.810Z,6.83
2018-12-12T18:48:26.912Z,5.80
2018-12-12T18:50:54.993Z,7.57
2018-12-12T18:53:23.061Z,7.43
2018-12-12T18:55:51.218Z,6.83
2018-12-12T18:58:19.400Z,6.40
2018-12-12T19:00:47.447Z,6.60
2018-12-12T19:03:15.512Z,6.30
2018-12-12T19:05:43.670Z,6.83
2018-12-12T19:08:11.746Z,7.13
2018-12-12T19:10:39.899Z,6.13
2018-12-12T19:13:08.104Z,4.70
2018-12-12T19:15:36.277Z,9.80
2018-12-12T19:18:04.430Z,6.93
2018-12-12T19:20:32.515Z,7.07
2018-12-12T19:23:00.704Z,6.60
2018-12-12T19:25:28.776Z,8.23
2018-12-12T19:27:56.902Z,6.80
2018-12-12T19:30:24.955Z,6.67
2018-12-12T19:32:53.038Z,6.03
2018-12-12T19:35:21.247Z,7.30
2018-12-12T19:37:50.130Z,6.17
2018-12-12T19:40:18.202Z,6.87
2018-12-12T19:42:46.298Z,7.10
2018-12-12T19:45:14.420Z,7.97
2018-12-12T19:47:42.489Z,6.23
2018-12-12T19:50:10.598Z,5.60
2018-12-12T19:52:38.721Z,5.53
2018-12-12T19:55:06.911Z,6.17
2018-12-12T19:57:35.002Z,6.37
2018-12-12T20:00:05.034Z,7.10
2018-12-12T20:02:33.200Z,8.40
2018-12-12T20:05:01.329Z,8.20
2018-12-12T20:07:29.441Z,7.37
2018-12-12T20:09:57.616Z,6.37
2018-12-12T20:12:26.618Z,5.73
2018-12-12T20:14:54.674Z,5.67
2018-12-12T20:17:22.832Z,5.90
2018-12-12T20:19:50.989Z,5.80
2018-12-12T20:22:19.124Z,6.70
2018-12-12T20:24:47.233Z,6.27
2018-12-12T20:27:15.317Z,6.10
2018-12-12T20:29:43.400Z,6.20
2018-12-12T20:32:11.876Z,5.77
2018-12-12T20:34:39.976Z,5.43
2018-12-12T20:37:08.029Z,5.50
2018-12-12T20:39:36.111Z,4.93
2018-12-12T20:42:04.211Z,4.90
2018-12-12T20:44:32.259Z,5.63
2018-12-12T20:47:00.385Z,5.33
2018-12-12T20:49:28.464Z,5.03
2018-12-12T20:51:56.560Z,5.00
2018-12-12T20:54:24.654Z,5.33
2018-12-12T20:56:52.767Z,4.97
2018-12-12T20:59:20.835Z,5.47
2018-12-12T21:01:48.895Z,4.77
2018-12-12T21:04:17.007Z,5.83
2018-12-12T21:06:45.558Z,6.13
2018-12-12T21:09:13.635Z,6.13
2018-12-12T21:11:41.690Z,5.77
2018-12-12T21:14:09.772Z,6.50
2018-12-12T21:16:37.821Z,6.17
2018-12-12T21:19:06.029Z,5.30
2018-12-12T21:21:34.706Z,5.23
2018-12-12T21:24:03.121Z,6.00
2018-12-12T21:26:31.204Z,6.10
2018-12-12T21:28:59.432Z,5.63
2018-12-12T21:31:27.497Z,5.43
2018-12-12T21:33:55.554Z,5.60
2018-12-12T21:36:23.629Z,6.27
2018-12-12T21:38:51.713Z,6.27
2018-12-12T21:41:19.794Z,5.83
2018-12-12T21:43:47.866Z,4.77
2018-12-12T21:46:15.964Z,5.30
2018-12-12T21:48:44.102Z,4.97
2018-12-12T21:51:12.223Z,4.90
2018-12-12T21:53:40.285Z,4.83
2018-12-12T21:56:08.362Z,5.30
2018-12-12T21:58:36.486Z,5.50
2018-12-12T22:01:04.532Z,4.33
2018-12-12T22:03:32.592Z,4.33
2018-12-12T22:06:00.669Z,4.87
2018-12-12T22:08:28.776Z,5.23
2018-12-12T22:10:56.853Z,5.57
2018-12-12T22:13:25.921Z,4.77
2018-12-12T22:15:54.114Z,4.97
2018-12-12T22:18:22.180Z,4.77
2018-12-12T22:20:50.248Z,4.70
2018-12-12T22:23:18.328Z,5.03
2018-12-12T22:25:46.429Z,5.23
2018-12-12T22:28:14.464Z,5.73
2018-12-12T22:30:42.776Z,4.93
2018-12-12T22:33:10.835Z,6.40
2018-12-12T22:35:39.050Z,5.20
2018-12-12T22:38:07.104Z,4.77
2018-12-12T22:40:35.195Z,5.37
2018-12-12T22:43:03.298Z,5.30
2018-12-12T22:45:31.351Z,5.63
2018-12-12T22:47:59.711Z,5.80
2018-12-12T22:50:27.788Z,7.13
2018-12-12T22:52:55.886Z,6.40
2018-12-12T22:55:24.064Z,6.03
2018-12-12T22:57:52.160Z,7.13
2018-12-12T23:00:25.811Z,6.00
2018-12-12T23:02:53.877Z,7.50
2018-12-12T23:05:21.955Z,7.53
2018-12-12T23:07:50.098Z,7.57
2018-12-12T23:10:18.139Z,7.97
2018-12-12T23:12:46.249Z,7.30
2018-12-12T23:15:14.328Z,7.20
2018-12-12T23:17:42.396Z,7.33
2018-12-12T23:20:10.485Z,6.87
2018-12-12T23:22:38.618Z,7.50
2018-12-12T23:25:06.675Z,5.97
2018-12-12T23:27:34.724Z,5.67
2018-12-12T23:30:04.144Z,7.53
2018-12-12T23:32:32.216Z,6.60
2018-12-12T23:35:00.283Z,6.03
2018-12-12T23:37:28.360Z,5.57
2018-12-12T23:39:56.430Z,6.37
2018-12-12T23:42:24.510Z,6.30
2018-12-12T23:44:52.664Z,5.87
2018-12-12T23:47:20.757Z,5.43
2018-12-12T23:49:49.024Z,6.30
2018-12-12T23:52:17.108Z,6.00
2018-12-12T23:54:45.190Z,6.23
2018-12-12T23:57:13.284Z,5.70
2018-12-12T23:59:41.370Z,5.27
